Time;durP1;ratioP1;P1;durP2;ratioP2;P2;SDS_P1;SDS_P2;PMS_P1;PMS_P2;Temp;Humidity;BMP_temperature;BMP_pressure;BME280_temperature;BME280_humidity;BME280_pressure;Samples;Min_cycle;Max_cycle;Signal;HPM_P1;HPM_P2
2021/12/22 00:02:14;;;;;;;91.80;24.90;;;-3271.40;96.70;;;;;;4991175;28;20112;-73
2021/12/22 00:04:44;;;;;;;102.47;25.88;;;-3271.40;96.70;;;;;;4999161;28;20444;-76
2021/12/22 00:07:14;;;;;;;105.55;25.27;;;-3271.40;96.80;;;;;;4998898;28;20034;-73
2021/12/22 00:09:41;;;;;;;92.85;25.15;;;-3271.40;96.80;;;;;;4998669;28;20129;-77
2021/12/22 00:12:07;;;;;;;99.65;27.27;;;-3271.40;96.80;;;;;;4991767;28;20022;-74
2021/12/22 00:14:33;;;;;;;88.55;25.85;;;-3271.40;96.80;;;;;;4991099;28;20122;-73
2021/12/22 00:16:58;;;;;;;84.75;25.58;;;-3271.40;96.70;;;;;;4998014;28;20469;-75
2021/12/22 00:19:24;;;;;;;86.20;25.08;;;-3271.40;96.70;;;;;;4998835;28;20034;-73
2021/12/22 00:21:49;;;;;;;89.28;25.90;;;-3271.40;96.70;;;;;;5004444;28;20476;-73
2021/12/22 00:24:15;;;;;;;92.72;26.35;;;-3271.40;96.70;;;;;;5000594;28;20148;-76
2021/12/22 00:26:40;;;;;;;83.97;25.45;;;-3271.40;96.60;;;;;;4991827;28;20372;-73
2021/12/22 00:29:08;;;;;;;76.00;24.02;;;-3271.40;96.70;;;;;;4996327;28;20097;-78
2021/12/22 00:31:41;;;;;;;87.55;24.08;;;-3271.30;96.60;;;;;;4997200;28;20050;-75
2021/12/22 00:34:15;;;;;;;84.07;23.02;;;-3271.30;96.60;;;;;;4992343;28;20022;-73
2021/12/22 00:36:40;;;;;;;81.05;23.67;;;-3271.30;96.70;;;;;;5005409;28;20048;-74
2021/12/22 00:39:06;;;;;;;95.18;25.77;;;-3271.30;96.70;;;;;;5003214;28;20397;-75
2021/12/22 00:41:31;;;;;;;78.93;24.02;;;-3271.40;96.80;;;;;;4997320;28;20159;-73
2021/12/22 00:43:57;;;;;;;73.07;23.20;;;-3271.30;96.70;;;;;;5001299;28;20033;-74
2021/12/22 00:46:22;;;;;;;85.93;24.17;;;-3271.40;96.80;;;;;;4992905;28;20113;-75
2021/12/22 00:48:48;;;;;;;71.72;24.40;;;-3271.50;96.80;;;;;;4991697;28;20081;-75
2021/12/22 00:51:13;;;;;;;71.80;24.38;;;-3271.40;96.70;;;;;;4984524;28;20565;-73
2021/12/22 00:53:39;;;;;;;80.15;24.95;;;-3271.50;96.80;;;;;;4991383;28;20049;-75
2021/12/22 00:56:07;;;;;;;68.72;22.95;;;-3271.40;96.70;;;;;;4995923;28;20033;-74
2021/12/22 00:58:33;;;;;;;79.18;24.50;;;-3271.40;96.70;;;;;;5000183;28;20040;-73
2021/12/22 01:00:59;;;;;;;77.95;25.35;;;-3271.50;96.80;;;;;;4995112;28;20026;-73
2021/12/22 01:03:26;;;;;;;86.05;23.50;;;-3271.50;96.80;;;;;;4997098;28;20038;-76
2021/12/22 01:05:52;;;;;;;69.07;22.90;;;-3271.50;96.80;;;;;;4989449;28;20022;-73
2021/12/22 01:08:17;;;;;;;74.90;23.00;;;-3271.50;96.80;;;;;;5000065;28;20135;-73
2021/12/22 01:10:43;;;;;;;72.93;23.23;;;-3271.50;96.80;;;;;;4998256;28;20201;-74
2021/12/22 01:13:09;;;;;;;73.35;22.27;;;-3271.50;96.80;;;;;;4991990;28;20402;-78
2021/12/22 01:15:36;;;;;;;70.45;22.52;;;-3271.50;96.80;;;;;;4994787;28;20657;-76
2021/12/22 01:18:10;;;;;;;69.25;20.60;;;-3271.50;96.80;;;;;;4987496;28;20092;-73
2021/12/22 01:20:50;;;;;;;85.55;22.38;;;-3271.50;96.80;;;;;;4988450;28;20022;-73
2021/12/22 01:23:19;;;;;;;69.53;22.25;;;-3271.50;96.80;;;;;;5001468;28;20019;-74
2021/12/22 01:25:44;;;;;;;75.45;21.58;;;-3271.50;96.80;;;;;;4993554;28;20022;-74
2021/12/22 01:28:11;;;;;;;71.43;22.00;;;-3271.50;96.80;;;;;;4988282;28;20061;-74
2021/12/22 01:30:42;;;;;;;68.32;21.90;;;-3271.50;96.90;;;;;;4990936;28;20022;-71
2021/12/22 01:33:08;;;;;;;65.85;21.70;;;-3271.60;96.90;;;;;;4992618;28;20038;-73
2021/12/22 01:35:37;;;;;;;59.78;22.30;;;-3271.60;96.90;;;;;;4997489;28;20060;-76
2021/12/22 01:38:04;;;;;;;62.25;21.60;;;-3271.60;97.00;;;;;;4991804;28;20057;-72
2021/12/22 01:40:31;;;;;;;66.95;22.13;;;-3271.60;96.90;;;;;;5002579;28;20074;-75
2021/12/22 01:42:57;;;;;;;74.63;21.63;;;-3271.60;96.80;;;;;;4986956;28;20409;-75
2021/12/22 01:45:47;;;;;;;65.15;22.80;;;-3271.50;96.80;;;;;;4988043;28;20053;-74
2021/12/22 01:51:05;;;;;;;71.80;20.58;;;-3271.50;96.80;;;;;;4987109;28;20037;-74
2021/12/22 01:53:56;;;;;;;75.13;21.63;;;-3271.50;96.80;;;;;;4992590;28;20053;-73
2021/12/22 01:56:24;;;;;;;;;;;-3271.50;96.80;;;;;;4985211;28;20034;-72
2021/12/22 01:58:54;;;;;;;61.67;20.00;;;-3271.50;96.70;;;;;;4989212;28;19936;-72
2021/12/22 02:01:20;;;;;;;77.57;21.30;;;-3271.50;96.90;;;;;;4994223;28;20065;-75
2021/12/22 02:03:48;;;;;;;93.32;21.67;;;-3271.50;96.90;;;;;;4999290;28;20751;-73
2021/12/22 02:06:14;;;;;;;80.47;20.48;;;-3271.50;96.80;;;;;;5008111;28;20400;-76
2021/12/22 02:08:41;;;;;;;67.22;20.75;;;-3271.50;96.90;;;;;;4994568;28;20057;-74
2021/12/22 02:11:08;;;;;;;119.10;22.00;;;-3271.50;96.80;;;;;;4991387;28;20029;-73
2021/12/22 02:13:38;;;;;;;71.95;22.08;;;-3271.50;96.80;;;;;;4994821;28;20555;-75
2021/12/22 02:16:10;;;;;;;;;;;-3271.50;96.90;;;;;;4994620;28;20037;-75
2021/12/22 02:18:39;;;;;;;97.95;18.92;;;-3271.50;96.90;;;;;;4993323;28;20017;-75
2021/12/22 02:21:05;;;;;;;64.00;20.13;;;-3271.40;96.80;;;;;;4998232;28;20029;-75
2021/12/22 02:23:32;;;;;;;63.95;21.10;;;-3271.40;96.90;;;;;;4996042;28;20583;-72
2021/12/22 02:26:06;;;;;;;86.03;21.00;;;-3271.50;96.90;;;;;;4987638;28;20220;-75
2021/12/22 02:28:34;;;;;;;68.63;20.52;;;-3271.40;96.90;;;;;;4987696;28;20034;-72
2021/12/22 02:31:00;;;;;;;62.53;21.42;;;-3271.50;96.80;;;;;;4989984;28;20025;-72
2021/12/22 02:33:34;;;;;;;73.95;21.08;;;-3271.50;96.90;;;;;;4986937;28;20023;-75
2021/12/22 02:38:38;;;;;;;69.45;21.15;;;-3271.40;96.80;;;;;;4995661;28;20068;-75
2021/12/22 02:41:07;;;;;;;54.63;19.42;;;-3271.50;96.90;;;;;;4988960;28;20125;-75
2021/12/22 02:43:34;;;;;;;61.90;20.52;;;-3271.50;96.90;;;;;;4991786;28;20025;-74
2021/12/22 02:46:00;;;;;;;63.22;19.50;;;-3271.50;97.00;;;;;;4995136;28;20025;-75
2021/12/22 02:48:33;;;;;;;65.82;20.10;;;-3271.50;96.90;;;;;;4989875;28;20144;-73
2021/12/22 02:51:01;;;;;;;76.70;20.48;;;-3271.50;96.80;;;;;;4999894;28;20089;-76
2021/12/22 02:53:43;;;;;;;57.28;19.70;;;-3271.40;96.80;;;;;;4998764;28;20105;-72
2021/12/22 03:04:07;;;;;;;68.10;20.70;;;-3271.50;96.80;;;;;;4991772;28;20026;-72
2021/12/22 03:06:37;;;;;;;66.05;20.73;;;-3271.50;96.70;;;;;;4999244;28;20091;-72
2021/12/22 03:09:26;;;;;;;60.75;19.02;;;-3271.50;96.70;;;;;;4997281;28;20077;-75
2021/12/22 03:11:53;;;;;;;74.70;21.00;;;-3271.50;96.80;;;;;;4991219;28;20037;-74
2021/12/22 03:14:21;;;;;;;76.72;19.50;;;-3271.50;96.70;;;;;;4990810;28;20034;-72
2021/12/22 03:16:47;;;;;;;80.63;19.63;;;-3271.50;96.70;;;;;;4992684;28;20018;-73
2021/12/22 03:19:16;;;;;;;81.10;18.52;;;-3271.50;96.70;;;;;;5002212;28;20022;-71
2021/12/22 03:21:43;;;;;;;58.38;17.35;;;-3271.50;96.70;;;;;;4991851;28;20057;-75
2021/12/22 03:24:11;;;;;;;81.88;18.48;;;-3271.50;96.70;;;;;;4993353;28;20060;-73
2021/12/22 03:26:44;;;;;;;59.78;19.00;;;-3271.50;96.70;;;;;;4994571;28;20105;-75
2021/12/22 03:29:14;;;;;;;57.88;18.80;;;-3271.60;96.80;;;;;;5000601;28;20029;-72
2021/12/22 03:31:42;;;;;;;73.60;18.23;;;-3271.60;96.80;;;;;;5012122;28;20064;-71
2021/12/22 03:34:08;;;;;;;61.20;19.00;;;-3271.60;96.70;;;;;;4998825;28;20031;-72
2021/12/22 03:36:34;;;;;;;59.25;18.70;;;-3271.60;96.80;;;;;;4996786;28;20091;-73
2021/12/22 03:39:01;;;;;;;79.45;18.25;;;-3271.70;96.90;;;;;;4999255;28;20112;-72
2021/12/22 03:41:26;;;;;;;62.30;18.60;;;-3271.70;97.00;;;;;;4993427;28;20036;-74
2021/12/22 03:43:52;;;;;;;76.20;20.05;;;-3271.70;96.90;;;;;;5003823;28;20030;-71
2021/12/22 03:46:17;;;;;;;76.90;19.20;;;-3271.70;96.90;;;;;;4996422;28;20046;-75
2021/12/22 03:48:43;;;;;;;111.32;20.88;;;-3271.70;97.00;;;;;;5017823;28;20038;-72
2021/12/22 03:51:09;;;;;;;66.93;18.65;;;-3271.70;96.90;;;;;;4992944;28;20030;-73
2021/12/22 03:53:35;;;;;;;83.85;17.63;;;-3271.70;96.90;;;;;;5003237;28;20038;-72
2021/12/22 03:56:01;;;;;;;46.97;16.95;;;-3271.70;97.00;;;;;;4999557;28;20153;-73
2021/12/22 03:58:27;;;;;;;57.67;18.10;;;-3271.70;97.00;;;;;;4998535;28;20462;-73
2021/12/22 04:00:55;;;;;;;50.40;18.30;;;-3271.70;97.00;;;;;;4999319;28;20148;-73
2021/12/22 04:03:24;;;;;;;51.97;17.60;;;-3271.80;97.00;;;;;;4999098;28;20050;-71
2021/12/22 04:05:49;;;;;;;73.63;18.23;;;-3271.80;96.90;;;;;;4994190;28;20032;-73
2021/12/22 04:08:18;;;;;;;53.50;18.10;;;-3271.80;97.00;;;;;;4994397;28;20030;-75
2021/12/22 04:10:46;;;;;;;54.90;16.92;;;-3271.80;97.00;;;;;;4989373;28;20045;-74
2021/12/22 04:13:12;;;;;;;52.33;17.83;;;-3271.80;97.00;;;;;;4999498;28;20187;-76
2021/12/22 04:15:37;;;;;;;63.05;18.15;;;-3271.80;97.00;;;;;;4985975;28;20026;-76
2021/12/22 04:18:03;;;;;;;85.15;19.77;;;-3271.80;96.90;;;;;;4995164;28;20236;-73
2021/12/22 04:20:30;;;;;;;51.95;20.33;;;-3271.80;96.90;;;;;;4997757;28;20037;-73
2021/12/22 04:22:56;;;;;;;60.67;19.60;;;-3271.80;96.90;;;;;;4995836;28;20025;-72
2021/12/22 04:25:22;;;;;;;53.97;18.10;;;-3271.80;97.00;;;;;;4998175;28;20021;-72
2021/12/22 04:27:49;;;;;;;63.88;17.55;;;-3271.80;97.00;;;;;;4992933;28;20034;-72
2021/12/22 04:30:14;;;;;;;126.40;18.52;;;-3271.80;96.90;;;;;;4993554;28;20434;-77
2021/12/22 04:32:40;;;;;;;104.63;18.58;;;-3271.70;96.90;;;;;;4993205;28;20112;-72
2021/12/22 04:35:06;;;;;;;65.18;17.15;;;-3271.70;96.90;;;;;;4997356;28;20365;-73
2021/12/22 04:37:31;;;;;;;54.88;16.42;;;-3271.70;97.00;;;;;;5000874;28;20557;-74
2021/12/22 04:39:57;;;;;;;45.72;17.42;;;-3271.70;96.90;;;;;;5005083;28;20132;-76
2021/12/22 04:42:22;;;;;;;67.20;16.80;;;-3271.80;97.00;;;;;;4993244;28;20037;-73
2021/12/22 04:44:52;;;;;;;49.00;17.13;;;-3271.80;97.00;;;;;;4999401;28;20093;-73
2021/12/22 04:47:18;;;;;;;43.72;15.98;;;-3271.80;96.90;;;;;;5011574;28;20041;-75
2021/12/22 04:49:43;;;;;;;40.85;16.70;;;-3271.80;97.00;;;;;;4996336;28;20092;-76
2021/12/22 04:52:14;;;;;;;49.28;17.83;;;-3271.80;97.00;;;;;;4997832;28;20025;-73
2021/12/22 04:55:02;;;;;;;44.67;17.75;;;-3271.80;96.90;;;;;;5004042;28;20037;-77
2021/12/22 04:57:28;;;;;;;45.25;17.35;;;-3271.80;97.00;;;;;;4997739;28;20038;-73
2021/12/22 04:59:54;;;;;;;38.83;15.88;;;-3271.80;96.90;;;;;;4990227;28;20034;-73
2021/12/22 05:02:19;;;;;;;58.45;16.17;;;-3271.80;96.80;;;;;;4997669;28;20082;-73
2021/12/22 05:04:45;;;;;;;39.53;16.50;;;-3271.80;96.90;;;;;;4991072;28;20056;-77
2021/12/22 05:07:10;;;;;;;38.05;15.13;;;-3271.80;96.90;;;;;;4991993;28;20356;-76
2021/12/22 05:09:36;;;;;;;43.47;15.38;;;-3271.80;97.00;;;;;;5003691;28;20066;-75
2021/12/22 05:12:02;;;;;;;62.53;14.45;;;-3271.70;96.80;;;;;;5004886;28;20033;-76
2021/12/22 05:14:27;;;;;;;88.32;16.35;;;-3271.60;96.80;;;;;;4994259;28;20085;-74
2021/12/22 05:16:59;;;;;;;36.33;13.43;;;-3271.60;96.90;;;;;;4993749;28;20082;-71
2021/12/22 05:19:25;;;;;;;35.63;14.45;;;-3271.60;96.90;;;;;;5000802;28;20101;-63
2021/12/22 05:21:50;;;;;;;38.90;15.60;;;-3271.70;97.10;;;;;;4995167;28;20030;-66
2021/12/22 05:24:16;;;;;;;44.08;13.13;;;-3271.70;97.00;;;;;;4997831;28;20033;-65
2021/12/22 05:26:41;;;;;;;34.80;14.25;;;-3271.70;97.10;;;;;;5000016;28;20049;-64
2021/12/22 05:29:07;;;;;;;38.50;14.80;;;-3271.80;97.10;;;;;;4987534;28;20154;-66
2021/12/22 05:31:33;;;;;;;101.88;16.15;;;-3271.80;97.10;;;;;;4999431;28;20060;-65
2021/12/22 05:33:58;;;;;;;66.47;14.70;;;-3271.80;97.00;;;;;;4993354;28;20074;-65
2021/12/22 05:36:24;;;;;;;75.18;14.80;;;-3271.70;97.00;;;;;;4991164;28;20121;-66
2021/12/22 05:38:49;;;;;;;58.78;15.27;;;-3271.70;97.00;;;;;;4997946;28;20022;-67
2021/12/22 05:41:15;;;;;;;38.10;13.27;;;-3271.70;97.10;;;;;;4999473;28;20072;-66
2021/12/22 05:43:41;;;;;;;40.97;14.25;;;-3271.80;97.10;;;;;;4993532;28;20084;-65
2021/12/22 05:46:06;;;;;;;42.88;14.50;;;-3271.80;97.10;;;;;;4992729;28;20023;-64
2021/12/22 05:48:32;;;;;;;30.17;13.00;;;-3271.80;97.10;;;;;;4987218;28;20044;-65
2021/12/22 05:50:58;;;;;;;34.55;13.55;;;-3271.80;97.10;;;;;;4996341;28;20022;-65
2021/12/22 05:53:25;;;;;;;36.78;12.98;;;-3271.90;97.10;;;;;;4989589;28;20022;-65
2021/12/22 05:55:51;;;;;;;48.53;13.65;;;-3271.80;97.10;;;;;;4991494;28;20133;-65
2021/12/22 05:58:18;;;;;;;32.25;13.68;;;-3271.80;97.00;;;;;;4987148;28;20029;-65
2021/12/22 06:00:44;;;;;;;35.28;13.32;;;-3271.80;97.00;;;;;;4991030;28;20046;-65
2021/12/22 06:03:12;;;;;;;30.63;13.38;;;-3271.90;97.10;;;;;;4993794;28;20030;-65
2021/12/22 06:05:39;;;;;;;31.30;14.57;;;-3271.90;97.10;;;;;;4991862;28;20030;-65
2021/12/22 06:08:05;;;;;;;33.22;13.70;;;-3271.90;97.10;;;;;;4988297;28;20354;-65
2021/12/22 06:10:34;;;;;;;40.50;14.75;;;-3272.00;97.10;;;;;;4997429;28;20029;-65
2021/12/22 06:13:02;;;;;;;28.95;12.68;;;-3271.90;97.00;;;;;;4994372;28;20658;-66
2021/12/22 06:15:27;;;;;;;31.73;13.88;;;-3271.80;96.80;;;;;;4987948;28;20102;-66
2021/12/22 06:17:56;;;;;;;28.83;12.93;;;-3271.80;96.80;;;;;;4999084;28;20074;-66
2021/12/22 06:20:21;;;;;;;58.78;13.98;;;-3271.80;96.80;;;;;;4988358;28;20022;-66
2021/12/22 06:22:47;;;;;;;28.60;12.93;;;-3271.80;96.80;;;;;;4993229;28;20102;-66
2021/12/22 06:25:12;;;;;;;47.97;13.50;;;-3271.80;96.80;;;;;;4989214;28;20054;-66
2021/12/22 06:27:38;;;;;;;37.75;12.15;;;-3271.80;96.80;;;;;;4986834;28;20046;-66
2021/12/22 06:30:04;;;;;;;33.25;12.07;;;-3271.80;96.80;;;;;;4988021;28;20121;-67
2021/12/22 06:32:30;;;;;;;41.83;12.25;;;-3271.80;96.80;;;;;;4990002;28;20405;-66
2021/12/22 06:34:55;;;;;;;28.38;11.48;;;-3271.70;96.70;;;;;;4990258;28;20014;-66
2021/12/22 06:37:21;;;;;;;40.30;11.65;;;-3271.80;96.80;;;;;;4987514;28;20067;-66
2021/12/22 06:39:46;;;;;;;28.65;11.65;;;-3271.80;96.80;;;;;;4988404;28;20073;-66
2021/12/22 06:42:12;;;;;;;47.65;13.07;;;-3271.80;96.90;;;;;;4991470;28;20130;-65
2021/12/22 06:44:37;;;;;;;34.40;12.57;;;-3271.80;96.90;;;;;;5000439;28;20072;-65
2021/12/22 06:47:03;;;;;;;30.80;12.82;;;-3271.80;96.90;;;;;;5001250;28;20092;-65
2021/12/22 06:49:29;;;;;;;54.03;14.32;;;-3271.80;96.80;;;;;;4993744;28;20044;-65
2021/12/22 06:51:54;;;;;;;29.73;12.73;;;-3271.70;96.80;;;;;;4995539;28;20053;-66
2021/12/22 06:54:20;;;;;;;33.55;12.35;;;-3271.80;96.90;;;;;;4995020;28;20469;-65
2021/12/22 06:56:45;;;;;;;33.58;14.00;;;-3271.80;97.00;;;;;;4986253;28;20038;-66
2021/12/22 06:59:13;;;;;;;33.05;13.77;;;-3271.80;96.90;;;;;;4983475;28;20620;-65
2021/12/22 07:01:39;;;;;;;30.65;14.13;;;-3271.90;97.10;;;;;;4992389;28;20041;-66
2021/12/22 07:04:04;;;;;;;34.90;14.90;;;-3271.80;96.90;;;;;;4989049;28;20552;-66
2021/12/22 07:06:31;;;;;;;33.63;14.38;;;-3271.90;97.10;;;;;;4983373;28;20041;-66
2021/12/22 07:08:57;;;;;;;38.70;15.63;;;-3272.00;97.00;;;;;;4992389;28;20144;-65
2021/12/22 07:11:23;;;;;;;36.53;15.73;;;-3271.90;97.00;;;;;;4990602;28;20046;-66
2021/12/22 07:13:48;;;;;;;33.67;13.98;;;-3271.90;96.90;;;;;;4994642;28;20113;-65
2021/12/22 07:16:14;;;;;;;32.28;13.50;;;-3272.00;96.90;;;;;;4996478;28;20029;-65
2021/12/22 07:18:40;;;;;;;35.60;14.52;;;-3272.00;96.90;;;;;;4995499;28;20127;-65
2021/12/22 07:21:05;;;;;;;38.28;15.23;;;-3272.00;96.90;;;;;;5002561;28;20172;-66
2021/12/22 07:23:31;;;;;;;45.75;15.48;;;-3272.00;96.80;;;;;;4990900;28;20037;-66
2021/12/22 07:25:56;;;;;;;39.45;15.30;;;-3271.90;96.80;;;;;;4997393;28;20042;-66
2021/12/22 07:28:22;;;;;;;33.72;14.48;;;-3271.90;96.80;;;;;;4991026;28;20053;-66
2021/12/22 07:30:48;;;;;;;38.45;14.85;;;-3272.00;96.90;;;;;;4996728;28;20022;-66
2021/12/22 07:33:13;;;;;;;33.38;14.25;;;-3272.00;96.80;;;;;;5007374;28;20633;-66
2021/12/22 07:35:58;;;;;;;34.03;14.07;;;-3272.00;96.80;;;;;;4990871;28;20052;-66
2021/12/22 07:38:24;;;;;;;35.85;13.55;;;-3271.90;96.70;;;;;;4995256;28;20042;-66
2021/12/22 07:40:51;;;;;;;36.97;13.93;;;-3272.00;96.80;;;;;;4996166;28;20041;-66
2021/12/22 07:43:16;;;;;;;34.42;13.63;;;-3271.90;96.80;;;;;;4988084;28;20026;-66
2021/12/22 07:45:42;;;;;;;43.92;15.00;;;-3272.00;96.90;;;;;;4995950;28;20080;-65
2021/12/22 07:48:08;;;;;;;42.13;15.05;;;-3272.00;96.80;;;;;;5001600;28;20026;-66
2021/12/22 07:50:33;;;;;;;36.10;13.85;;;-3272.00;96.80;;;;;;4994416;28;20041;-66
2021/12/22 07:52:59;;;;;;;38.75;14.95;;;-3272.00;96.80;;;;;;4989653;28;20026;-65
2021/12/22 07:55:24;;;;;;;34.15;13.85;;;-3272.00;96.90;;;;;;4994324;28;20031;-66
2021/12/22 07:57:50;;;;;;;32.22;14.52;;;-3272.00;96.80;;;;;;5000677;28;20503;-66
2021/12/22 08:00:16;;;;;;;27.95;13.40;;;-3272.10;96.80;;;;;;5013606;28;20048;-66
2021/12/22 08:02:41;;;;;;;38.33;13.93;;;-3272.10;96.80;;;;;;5002708;28;20057;-66
2021/12/22 08:05:07;;;;;;;33.78;13.27;;;-3272.10;96.80;;;;;;4987589;28;20098;-66
2021/12/22 08:07:34;;;;;;;29.30;12.95;;;-3272.10;96.80;;;;;;4985330;28;20038;-66
2021/12/22 08:10:01;;;;;;;31.63;12.98;;;-3272.20;96.90;;;;;;5003769;28;20113;-66
2021/12/22 08:12:26;;;;;;;33.88;13.25;;;-3272.20;96.90;;;;;;4995387;28;20057;-66
2021/12/22 08:14:52;;;;;;;31.15;13.48;;;-3272.20;96.80;;;;;;4991609;28;20026;-66
2021/12/22 08:17:17;;;;;;;35.50;15.02;;;-3272.30;96.80;;;;;;4992747;28;20084;-66
2021/12/22 08:19:45;;;;;;;31.35;13.20;;;-3272.30;96.80;;;;;;4996359;28;20088;-66
2021/12/22 08:22:10;;;;;;;34.42;13.48;;;-3272.30;96.70;;;;;;4988539;28;20780;-66
2021/12/22 08:24:37;;;;;;;40.35;15.25;;;-3272.30;96.70;;;;;;5000733;28;20113;-66
2021/12/22 08:27:03;;;;;;;30.88;13.27;;;-3272.30;96.60;;;;;;4998146;28;20108;-66
2021/12/22 08:29:28;;;;;;;41.38;13.77;;;-3272.30;96.70;;;;;;4995894;28;20187;-66
2021/12/22 08:31:54;;;;;;;43.75;13.02;;;-3272.20;96.50;;;;;;4990161;28;20109;-66
2021/12/22 08:34:27;;;;;;;38.17;13.75;;;-3272.20;96.70;;;;;;4990025;28;20061;-67
2021/12/22 08:39:38;;;;;;;36.63;12.45;;;-3272.30;96.80;;;;;;5005148;28;20064;-67
2021/12/22 08:42:04;;;;;;;37.47;11.55;;;-3272.30;96.70;;;;;;4994353;28;21111;-67
2021/12/22 08:44:32;;;;;;;32.58;13.30;;;-3272.30;96.70;;;;;;4999717;28;20458;-67
2021/12/22 08:46:58;;;;;;;31.25;12.75;;;-3272.40;96.90;;;;;;4991448;28;20057;-67
2021/12/22 08:49:24;;;;;;;33.25;12.90;;;-3272.50;96.90;;;;;;4998298;28;20061;-66
2021/12/22 08:51:50;;;;;;;34.10;12.65;;;-3272.50;96.90;;;;;;4986589;28;20105;-67
2021/12/22 08:54:16;;;;;;;40.33;14.77;;;-3272.60;96.80;;;;;;4997240;28;20604;-67
2021/12/22 08:56:43;;;;;;;29.65;14.32;;;-3272.60;96.70;;;;;;4990170;28;20058;-67
2021/12/22 08:59:10;;;;;;;35.72;13.35;;;-3272.70;96.70;;;;;;4991186;28;20432;-67
2021/12/22 09:01:36;;;;;;;33.38;13.93;;;-3272.70;96.80;;;;;;4994086;28;20403;-67
2021/12/22 09:04:02;;;;;;;32.42;13.35;;;-3272.80;96.70;;;;;;4987410;28;20039;-67
2021/12/22 09:06:27;;;;;;;33.00;12.77;;;-3272.90;96.70;;;;;;4994852;28;20500;-67
2021/12/22 09:08:53;;;;;;;32.65;13.48;;;-3272.90;96.70;;;;;;4995031;28;20452;-67
2021/12/22 09:11:19;;;;;;;30.75;13.40;;;-3272.70;96.30;;;;;;4996780;28;20042;-68
2021/12/22 09:13:45;;;;;;;33.60;13.98;;;-3272.70;96.50;;;;;;4998049;28;20554;-66
2021/12/22 09:16:11;;;;;;;30.35;13.88;;;-3272.70;96.50;;;;;;5000465;28;20027;-66
2021/12/22 09:18:37;;;;;;;32.05;12.95;;;-3272.70;96.60;;;;;;5016421;28;20515;-66
2021/12/22 09:21:04;;;;;;;33.17;13.35;;;-3272.70;96.70;;;;;;4994857;28;20167;-67
2021/12/22 09:23:30;;;;;;;33.60;14.57;;;-3272.80;96.70;;;;;;5002485;28;20045;-66
2021/12/22 09:25:55;;;;;;;34.17;13.40;;;-3272.80;96.60;;;;;;5007842;28;20048;-66
2021/12/22 09:28:21;;;;;;;33.72;14.30;;;-3272.90;96.80;;;;;;4995507;28;20044;-67
2021/12/22 09:30:47;;;;;;;36.45;13.70;;;-3272.90;96.60;;;;;;4994362;28;20121;-67
2021/12/22 09:33:15;;;;;;;30.98;13.70;;;-3272.90;96.60;;;;;;4991707;28;20323;-66
2021/12/22 09:35:43;;;;;;;33.58;13.13;;;-3272.90;96.60;;;;;;4983867;28;20027;-66
2021/12/22 09:38:09;;;;;;;36.42;14.43;;;-3273.10;96.80;;;;;;4990729;28;20056;-67
2021/12/22 09:40:35;;;;;;;37.13;14.68;;;-3273.10;96.70;;;;;;5006177;28;20429;-67
2021/12/22 09:43:01;;;;;;;35.53;14.15;;;-3273.10;96.60;;;;;;4994143;28;20037;-66
2021/12/22 09:45:27;;;;;;;34.25;15.10;;;-3273.20;96.80;;;;;;5006939;28;20034;-66
2021/12/22 09:48:17;;;;;;;32.65;14.15;;;-3273.10;96.60;;;;;;4988468;28;20365;-67
2021/12/22 09:52:15;;;;;;;32.80;14.57;;;-3273.10;96.50;;;;;;4989987;28;20034;-67
2021/12/22 09:53:51;;;;;;;33.95;13.32;;;-3273.10;96.50;;;;;;4991489;28;20536;-67
2021/12/22 09:56:24;;;;;;;41.92;13.48;;;-3273.20;96.70;;;;;;4987728;28;20026;-67
2021/12/22 09:58:50;;;;;;;32.63;14.40;;;-3273.20;96.40;;;;;;4984778;28;20034;-68
2021/12/22 10:01:22;;;;;;;30.25;13.30;;;-3273.20;96.50;;;;;;4987477;28;20034;-67
2021/12/22 10:03:56;;;;;;;44.33;13.95;;;-3273.30;96.60;;;;;;4997293;28;20539;-67
2021/12/22 10:06:22;;;;;;;33.75;14.40;;;-3273.10;96.40;;;;;;4989185;28;20563;-67
2021/12/22 10:09:04;;;;;;;35.78;15.40;;;-3273.20;96.70;;;;;;4985511;28;20119;-67
2021/12/22 10:11:33;;;;;;;37.95;14.77;;;-3273.20;96.60;;;;;;4986372;28;20080;-65
2021/12/22 10:13:58;;;;;;;32.90;14.40;;;-3273.10;96.50;;;;;;4986182;28;20034;-66
2021/12/22 10:16:27;;;;;;;38.70;15.32;;;-3273.30;96.80;;;;;;4987852;28;20053;-67
2021/12/22 10:19:06;;;;;;;39.55;14.80;;;-3273.20;96.60;;;;;;4991976;28;20053;-67
2021/12/22 10:21:33;;;;;;;35.25;14.13;;;-3273.20;96.40;;;;;;4991380;28;20079;-67
2021/12/22 10:24:04;;;;;;;37.28;15.27;;;-3273.30;96.60;;;;;;4990285;28;20046;-66
2021/12/22 10:26:29;;;;;;;37.92;15.95;;;-3273.30;96.70;;;;;;4991787;28;20097;-65
2021/12/22 10:28:56;;;;;;;34.25;15.68;;;-3273.30;96.70;;;;;;4993382;28;20373;-65
2021/12/22 10:31:34;;;;;;;36.97;14.38;;;-3273.40;96.50;;;;;;4992929;28;20917;-65
2021/12/22 10:34:07;;;;;;;32.78;15.27;;;-3273.50;96.80;;;;;;4986705;28;20401;-66
2021/12/22 10:36:52;;;;;;;32.00;13.00;;;-3273.60;96.70;;;;;;4988596;28;20722;-66
2021/12/22 10:39:25;;;;;;;32.17;13.82;;;-3273.60;96.50;;;;;;4986755;28;20411;-66
2021/12/22 10:41:51;;;;;;;35.30;14.50;;;-3273.50;96.40;;;;;;4988244;28;20042;-66
2021/12/22 10:44:17;;;;;;;35.75;15.85;;;-3273.70;96.70;;;;;;4985522;28;20053;-66
2021/12/22 10:46:43;;;;;;;33.42;15.13;;;-3273.70;96.60;;;;;;4986038;28;20033;-66
2021/12/22 10:49:14;;;;;;;29.73;13.15;;;-3273.80;96.80;;;;;;4983876;28;20057;-66
2021/12/22 10:51:43;;;;;;;30.38;13.88;;;-3273.80;96.60;;;;;;4985930;28;20038;-67
2021/12/22 10:54:16;;;;;;;29.75;13.32;;;-3273.70;96.10;;;;;;4971925;28;20049;-66
2021/12/22 10:56:45;;;;;;;39.83;14.02;;;-3273.80;96.60;;;;;;4994565;28;20018;-66
2021/12/22 10:59:14;;;;;;;34.85;14.93;;;-3273.70;96.30;;;;;;4990676;28;20416;-67
2021/12/22 11:01:57;;;;;;;38.88;14.85;;;-3273.70;96.40;;;;;;4992252;28;20053;-66
2021/12/22 11:04:32;;;;;;;32.78;14.32;;;-3273.60;96.30;;;;;;4990613;28;20022;-67
2021/12/22 11:07:21;;;;;;;31.38;14.88;;;-3273.70;96.40;;;;;;4989174;28;20053;-66
2021/12/22 11:09:47;;;;;;;28.98;12.95;;;-3273.80;96.60;;;;;;5003165;28;20424;-66
2021/12/22 11:12:16;;;;;;;36.35;14.73;;;-3273.60;96.40;;;;;;4989544;28;20046;-66
2021/12/22 11:14:46;;;;;;;29.05;14.60;;;-3273.80;96.70;;;;;;5005305;28;20433;-65
2021/12/22 11:17:15;;;;;;;32.47;15.10;;;-3273.90;96.60;;;;;;4988576;28;20041;-65
2021/12/22 11:19:53;;;;;;;33.92;15.48;;;-3273.90;96.50;;;;;;4998484;28;20049;-65
2021/12/22 11:22:22;;;;;;;31.88;14.63;;;-3274.00;96.60;;;;;;4993519;28;20034;-65
2021/12/22 11:24:53;;;;;;;31.45;14.45;;;-3274.00;96.50;;;;;;4993241;28;20149;-68
2021/12/22 11:27:21;;;;;;;29.65;15.43;;;-3274.00;96.40;;;;;;4996208;28;20408;-65
2021/12/22 11:29:52;;;;;;;29.83;14.77;;;-3274.00;96.40;;;;;;4993720;28;20060;-65
2021/12/22 11:32:20;;;;;;;32.80;15.35;;;-3273.90;96.40;;;;;;4984707;28;20091;-66
2021/12/22 11:34:59;;;;;;;30.92;14.85;;;-3274.00;96.40;;;;;;4999342;28;20203;-66
2021/12/22 11:37:26;;;;;;;32.10;14.70;;;-3273.90;96.20;;;;;;4997021;28;20038;-66
2021/12/22 11:39:52;;;;;;;31.80;16.05;;;-3273.90;96.20;;;;;;5003192;28;20179;-66
2021/12/22 11:42:22;;;;;;;33.65;15.88;;;-3274.10;96.50;;;;;;4996367;28;20163;-66
2021/12/22 11:44:55;;;;;;;32.28;17.02;;;-3274.10;96.50;;;;;;4996075;28;20080;-66
2021/12/22 11:47:22;;;;;;;40.83;17.80;;;-3273.90;96.20;;;;;;4995895;28;20037;-66
2021/12/22 11:49:56;;;;;;;35.45;16.67;;;-3273.80;96.30;;;;;;4993707;28;20117;-66
2021/12/22 11:52:30;;;;;;;34.30;16.27;;;-3273.90;96.50;;;;;;4990034;28;20198;-66
2021/12/22 11:55:11;;;;;;;34.60;18.00;;;-3274.00;96.70;;;;;;5005155;28;20071;-66
2021/12/22 11:57:37;;;;;;;34.50;17.00;;;-3273.90;96.40;;;;;;5008276;28;20097;-65
2021/12/22 12:00:25;;;;;;;36.47;18.55;;;-3274.00;96.70;;;;;;4998032;28;20033;-65
2021/12/22 12:02:52;;;;;;;36.28;17.63;;;-3274.00;96.60;;;;;;4988049;28;20057;-66
2021/12/22 12:05:25;;;;;;;35.10;17.35;;;-3274.10;96.70;;;;;;4993549;28;20133;-66
2021/12/22 12:07:53;;;;;;;36.15;18.35;;;-3274.10;96.60;;;;;;5006766;28;20144;-66
2021/12/22 12:10:40;;;;;;;35.53;17.73;;;-3274.10;96.60;;;;;;5004425;28;20510;-66
2021/12/22 12:13:38;;;;;;;38.70;19.42;;;-3274.10;96.60;;;;;;4994985;28;20052;-65
2021/12/22 12:22:09;;;;;;;36.90;18.50;;;-3274.10;96.60;;;;;;4999392;28;20093;-66
2021/12/22 12:24:34;;;;;;;39.55;19.40;;;-3274.10;96.60;;;;;;4997554;28;20582;-66
2021/12/22 12:27:21;;;;;;;39.25;19.95;;;-3274.10;96.40;;;;;;5008213;28;20060;-66